Chandler, Texas
Current Conditions -  °F | °C
As of 1:53 PM on Thursday 18 Dec 2014 (Local Time) from KTYR Reporting Station
Haze Haze  
Wind Chill: 50°   Ceiling: 400
Heat Index: 50°   Visibility: 3mi
Dew Point: 47°   Wind: 3mph
Humidity: 89%   Direction: 30°NNE
Pressure: 30.11"   Gusts: NA
Location:  32.31°N, 95.48°W
Report Text: KTYR 181953Z 03003KT 3SM BR OVC004 10/08 A3011 RMK AO2 SLP194 T01000083
Loading
Personal Weather Stations






























Interactive Weather Map New forecast layout! Learn more

10-Day Weather Forecast

Advertisements
Track Severe Weather on mobile